Time;durP1;ratioP1;P1;durP2;ratioP2;P2;SDS_P1;SDS_P2;PMS_P1;PMS_P2;Temp;Humidity;BMP_temperature;BMP_pressure;BME280_temperature;BME280_humidity;BME280_pressure;Samples;Min_cycle;Max_cycle;Signal;HPM_P1;HPM_P2
2022/03/16 00:00:19;;;;;;;21.20;12.63;;;;;;;11.93;31.48;100271.41;4458211;32;35178;-77
2022/03/16 00:02:48;;;;;;;20.90;10.35;;;;;;;11.91;32.57;100254.28;4470964;32;34695;-77
2022/03/16 00:05:16;;;;;;;20.88;10.38;;;;;;;11.86;33.15;100237.53;4466028;31;32862;-77
2022/03/16 00:07:44;;;;;;;19.65;10.55;;;;;;;11.76;33.51;100226.03;4486243;31;33480;-77
2022/03/16 00:10:13;;;;;;;17.33;10.38;;;;;;;11.82;34.07;100239.00;4472948;31;34346;-77
2022/03/16 00:12:41;;;;;;;18.48;10.23;;;;;;;11.73;34.76;100245.69;4473444;31;33663;-77
2022/03/16 00:15:09;;;;;;;17.87;9.95;;;;;;;11.93;34.69;100249.41;4485908;31;33200;-77
2022/03/16 00:17:37;;;;;;;17.42;10.13;;;;;;;11.82;35.44;100242.59;4486673;31;33760;-77
2022/03/16 00:20:06;;;;;;;20.27;10.93;;;;;;;11.85;34.99;100252.34;4473054;31;35328;-77
2022/03/16 00:22:33;;;;;;;20.70;10.32;;;;;;;11.77;34.78;100247.00;4473294;31;34615;-77
2022/03/16 00:25:01;;;;;;;21.23;10.48;;;;;;;11.87;33.46;100244.72;4472955;31;33178;-77
2022/03/16 00:27:29;;;;;;;18.40;10.43;;;;;;;11.53;34.21;100231.84;4473165;31;32280;-77
2022/03/16 00:29:59;;;;;;;22.48;11.70;;;;;;;11.62;35.00;100235.28;4473267;31;34507;-77
2022/03/16 00:32:27;;;;;;;22.23;12.02;;;;;;;11.75;35.83;100229.81;4486265;31;34791;-77
2022/03/16 00:34:55;;;;;;;30.45;13.80;;;;;;;11.77;36.36;100233.25;4473036;31;33408;-77
2022/03/16 00:37:27;;;;;;;31.62;18.92;;;;;;;11.69;38.43;100234.25;4473643;31;33842;-77
2022/03/16 00:39:56;;;;;;;31.83;17.98;;;;;;;11.68;38.97;100223.47;4473218;31;33064;-77
2022/03/16 00:42:23;;;;;;;25.85;14.85;;;;;;;11.69;39.47;100215.03;4473239;31;33885;-77
2022/03/16 00:44:51;;;;;;;22.65;14.65;;;;;;;11.77;39.45;100227.75;4474239;31;34141;-76
2022/03/16 00:47:19;;;;;;;22.92;14.05;;;;;;;11.59;40.92;100221.94;4488314;31;34443;-77
2022/03/16 00:49:51;;;;;;;23.50;13.85;;;;;;;11.65;40.04;100218.38;4475299;31;34562;-77
2022/03/16 00:52:18;;;;;;;23.90;13.93;;;;;;;11.65;40.47;100218.38;4475524;31;34101;-76
2022/03/16 00:54:49;;;;;;;23.80;14.02;;;;;;;11.40;41.89;100210.59;4474739;31;32909;-77
2022/03/16 00:57:20;;;;;;;23.30;14.23;;;;;;;11.46;42.34;100206.22;4475816;31;33863;-77
2022/03/16 00:59:47;;;;;;;23.10;13.32;;;;;;;11.27;41.79;100193.19;4488059;31;34348;-76
2022/03/16 01:02:16;;;;;;;21.95;13.80;;;;;;;11.29;42.34;100191.94;4475452;31;33790;-78
2022/03/16 01:04:44;;;;;;;21.95;13.18;;;;;;;11.32;42.97;100190.69;4475052;31;32579;-77
2022/03/16 01:07:12;;;;;;;27.08;14.45;;;;;;;11.23;43.55;100187.25;4475386;31;34819;-74
2022/03/16 01:09:40;;;;;;;23.85;14.07;;;;;;;11.21;43.76;100192.94;4474896;31;32944;-77
2022/03/16 01:12:08;;;;;;;24.15;12.85;;;;;;;11.16;44.25;100194.59;4475083;31;33473;-91
2022/03/16 01:14:37;;;;;;;27.10;13.10;;;;;;;11.21;44.36;100194.84;4475294;31;32299;-91
2022/03/16 01:17:04;;;;;;;24.73;13.40;;;;;;;11.27;44.36;100193.19;4475428;31;33472;-77
2022/03/16 01:19:35;;;;;;;27.20;14.07;;;;;;;11.28;44.70;100205.88;4475017;31;32861;-77
2022/03/16 01:22:03;;;;;;;27.27;13.18;;;;;;;11.25;45.36;100200.78;4474882;31;34099;-77
2022/03/16 01:24:35;;;;;;;25.70;12.75;;;;;;;11.06;46.83;100207.81;4484487;32;33411;-76
2022/03/16 01:27:03;;;;;;;20.98;12.20;;;;;;;11.28;46.48;100211.38;4456782;32;33698;-77
2022/03/16 01:29:32;;;;;;;27.83;12.43;;;;;;;11.25;46.71;100225.50;4469357;32;34431;-78
2022/03/16 01:31:59;;;;;;;24.08;13.05;;;;;;;11.08;47.61;100238.69;4469918;32;33847;-77
2022/03/16 01:34:30;;;;;;;20.20;11.98;;;;;;;11.17;47.40;100238.34;4469564;32;34060;-77
2022/03/16 01:36:58;;;;;;;21.10;13.05;;;;;;;11.26;47.14;100233.53;4469682;32;33677;-77
2022/03/16 01:39:28;;;;;;;20.98;12.18;;;;;;;11.22;47.27;100245.97;4469468;32;34446;-77
2022/03/16 01:41:56;;;;;;;23.92;13.25;;;;;;;11.09;47.82;100243.13;4456835;32;33864;-77
2022/03/16 01:44:41;;;;;;;20.23;11.73;;;;;;;10.94;48.46;100254.22;4456671;32;33418;-77
2022/03/16 01:47:09;;;;;;;20.45;12.73;;;;;;;10.93;48.58;100248.94;4469054;32;33899;-77
2022/03/16 01:49:37;;;;;;;28.02;13.10;;;;;;;10.99;48.47;100249.00;4456621;32;32688;-77
2022/03/16 01:52:06;;;;;;;22.58;12.95;;;;;;;10.92;48.63;100233.50;4443741;32;32359;-77
2022/03/16 01:54:41;;;;;;;25.17;13.20;;;;;;;10.95;48.17;100244.94;4469447;32;34140;-77
2022/03/16 01:57:10;;;;;;;25.17;14.05;;;;;;;11.02;47.82;100237.59;4468206;32;34578;-77
2022/03/16 01:59:39;;;;;;;24.17;13.60;;;;;;;10.89;48.24;100234.75;4456779;32;34727;-77
2022/03/16 02:02:09;;;;;;;22.80;13.30;;;;;;;10.92;47.99;100230.75;4456774;32;34728;-77
2022/03/16 02:04:38;;;;;;;23.08;13.38;;;;;;;10.99;47.93;100223.44;4470421;32;33279;-77
2022/03/16 02:07:07;;;;;;;25.37;13.38;;;;;;;11.04;47.68;100223.69;4456163;32;32517;-77
2022/03/16 02:09:35;;;;;;;23.67;12.40;;;;;;;10.97;47.99;100234.59;4456193;32;35229;-77
2022/03/16 02:12:03;;;;;;;21.33;12.07;;;;;;;11.00;47.68;100225.12;4456427;32;34011;-78
2022/03/16 02:14:31;;;;;;;22.50;12.65;;;;;;;10.97;47.63;100226.38;4469400;32;33716;-77
2022/03/16 02:17:03;;;;;;;21.17;12.93;;;;;;;10.98;47.39;100216.22;4469161;32;34371;-77
2022/03/16 02:19:32;;;;;;;23.42;12.60;;;;;;;10.99;47.36;100207.78;4456054;32;32980;-77
2022/03/16 02:22:02;;;;;;;24.42;12.90;;;;;;;10.95;47.63;100212.00;4456646;32;33915;-78
2022/03/16 02:24:29;;;;;;;22.58;12.43;;;;;;;10.95;47.51;100209.25;4456325;32;33295;-77
2022/03/16 02:26:58;;;;;;;21.17;11.50;;;;;;;11.00;47.21;100205.91;4469137;32;34589;-77
2022/03/16 02:29:25;;;;;;;22.42;12.85;;;;;;;10.96;47.21;100201.84;4456360;32;32888;-78
2022/03/16 02:31:53;;;;;;;24.12;13.57;;;;;;;10.75;48.32;100194.50;4456438;32;33919;-77
2022/03/16 02:34:21;;;;;;;21.58;13.18;;;;;;;10.75;48.43;100197.22;4456209;32;31817;-77
2022/03/16 02:36:49;;;;;;;23.33;12.68;;;;;;;10.89;48.00;100186.16;4456268;32;33815;-76
2022/03/16 02:39:16;;;;;;;19.77;11.77;;;;;;;10.89;47.92;100186.16;4456094;32;33076;-77
2022/03/16 02:41:48;;;;;;;22.52;13.15;;;;;;;10.87;47.39;100173.69;4469150;32;34095;-77
2022/03/16 02:44:15;;;;;;;21.25;12.20;;;;;;;10.88;47.27;100165.25;4456318;32;33129;-77
2022/03/16 02:46:43;;;;;;;18.62;11.40;;;;;;;10.88;47.57;100165.25;4456204;32;33930;-77
2022/03/16 02:49:10;;;;;;;24.67;11.73;;;;;;;10.97;47.86;100159.59;4455989;32;34051;-77
2022/03/16 02:51:40;;;;;;;20.37;12.60;;;;;;;10.77;48.52;100159.44;4443277;32;32275;-76
2022/03/16 02:54:08;;;;;;;21.73;12.48;;;;;;;10.87;48.45;100148.97;4468935;32;33475;-77
2022/03/16 02:56:36;;;;;;;20.60;12.32;;;;;;;10.91;48.51;100149.44;4455166;32;33547;-77
2022/03/16 02:59:06;;;;;;;20.48;12.35;;;;;;;10.90;48.49;100148.56;4481643;32;35444;-77
2022/03/16 03:01:33;;;;;;;21.23;11.93;;;;;;;10.92;48.42;100151.97;4468595;32;34905;-77
2022/03/16 03:04:01;;;;;;;22.62;12.82;;;;;;;10.72;49.35;100146.31;4455747;32;32021;-78
2022/03/16 03:06:30;;;;;;;19.10;11.85;;;;;;;10.62;49.76;100132.09;4468519;32;33548;-78
2022/03/16 03:08:57;;;;;;;22.98;12.63;;;;;;;10.87;49.16;100138.00;4468369;32;33024;-78
2022/03/16 03:11:25;;;;;;;23.52;13.48;;;;;;;10.74;49.58;100136.00;4468568;32;33354;-78
2022/03/16 03:13:52;;;;;;;19.48;12.43;;;;;;;10.84;49.47;100131.00;4455657;32;32016;-78
2022/03/16 03:16:20;;;;;;;22.83;12.73;;;;;;;10.82;49.88;100130.34;4468868;32;33858;-77
2022/03/16 03:18:48;;;;;;;22.02;12.15;;;;;;;10.85;50.14;100135.44;4455748;32;35098;-77
2022/03/16 03:21:15;;;;;;;22.27;11.82;;;;;;;10.64;51.41;100129.13;4455651;32;35137;-77
2022/03/16 03:23:43;;;;;;;18.48;11.82;;;;;;;10.78;51.03;100126.31;4468516;32;33548;-77
2022/03/16 03:26:11;;;;;;;25.25;12.75;;;;;;;10.81;51.32;100111.34;4468514;32;34486;-77
2022/03/16 03:28:38;;;;;;;20.92;11.25;;;;;;;10.78;51.91;100117.22;4455438;32;33037;-78
2022/03/16 03:31:08;;;;;;;17.90;11.48;;;;;;;10.69;53.38;100096.44;4467130;32;34540;-77
2022/03/16 03:33:38;;;;;;;23.02;12.23;;;;;;;10.76;53.70;100087.22;4441460;32;31812;-77
2022/03/16 03:36:06;;;;;;;24.65;13.50;;;;;;;10.79;53.88;100075.84;4465934;32;34046;-77
2022/03/16 03:38:33;;;;;;;18.87;12.05;;;;;;;10.81;53.99;100057.28;4453663;32;33986;-77
2022/03/16 03:41:03;;;;;;;24.73;12.73;;;;;;;10.68;54.78;100067.31;4453280;32;32463;-77
2022/03/16 03:43:33;;;;;;;19.58;12.10;;;;;;;10.67;55.34;100055.47;4466233;32;32015;-77
2022/03/16 03:46:00;;;;;;;23.62;12.55;;;;;;;10.68;55.64;100046.19;4466564;32;34672;-77
2022/03/16 03:48:30;;;;;;;20.42;12.32;;;;;;;10.77;55.39;100030.41;4453715;32;32784;-77
2022/03/16 03:50:58;;;;;;;21.02;12.18;;;;;;;10.59;56.22;100041.91;4468305;32;33615;-77
2022/03/16 03:53:26;;;;;;;20.90;12.57;;;;;;;10.54;57.25;100034.28;4455589;32;34277;-78
2022/03/16 03:55:54;;;;;;;17.85;11.68;;;;;;;10.66;57.07;100041.97;4455387;32;33587;-78
2022/03/16 03:58:21;;;;;;;20.92;13.18;;;;;;;10.75;56.78;100019.63;4468043;32;34412;-77
2022/03/16 04:00:49;;;;;;;17.15;11.88;;;;;;;10.64;57.25;100017.47;4455444;32;33973;-75
2022/03/16 04:03:19;;;;;;;16.60;11.80;;;;;;;10.49;57.79;100025.78;4455343;32;33198;-76
2022/03/16 04:05:47;;;;;;;18.73;12.65;;;;;;;10.70;57.03;100024.03;4467711;32;33339;-77
2022/03/16 04:08:14;;;;;;;22.85;12.77;;;;;;;10.69;57.19;100014.97;4467967;32;35479;-77
2022/03/16 04:10:42;;;;;;;22.40;13.15;;;;;;;10.75;56.71;100019.63;4455151;32;32487;-79
2022/03/16 04:13:10;;;;;;;21.95;12.80;;;;;;;10.63;56.65;100014.91;4468135;32;33570;-77
2022/03/16 04:15:37;;;;;;;22.70;13.75;;;;;;;10.71;56.28;100001.88;4467970;32;33781;-77
2022/03/16 04:18:05;;;;;;;21.70;13.98;;;;;;;10.80;55.81;100005.31;4468989;32;34643;-77
2022/03/16 04:20:33;;;;;;;26.75;14.20;;;;;;;10.79;55.72;100009.09;4456596;32;33406;-77
2022/03/16 04:23:00;;;;;;;21.33;13.85;;;;;;;10.66;56.21;99998.03;4457234;32;33427;-77
2022/03/16 04:25:28;;;;;;;21.58;13.23;;;;;;;10.74;55.78;100003.37;4469898;32;34610;-77
2022/03/16 04:27:56;;;;;;;22.80;14.10;;;;;;;10.71;55.86;100018.34;4456968;32;34782;-77
2022/03/16 04:30:23;;;;;;;20.55;14.15;;;;;;;10.72;55.47;100020.03;4457047;32;32481;-77
2022/03/16 04:33:11;;;;;;;25.42;14.38;;;;;;;10.51;56.16;100017.38;4470443;32;33061;-77
2022/03/16 04:35:39;;;;;;;22.25;14.07;;;;;;;10.68;55.76;100016.00;4457435;32;32350;-77
2022/03/16 04:38:08;;;;;;;23.42;14.68;;;;;;;10.56;56.24;100010.22;4470944;32;34355;-77
2022/03/16 04:40:36;;;;;;;22.40;13.95;;;;;;;10.64;55.86;100009.22;4457005;32;33939;-75
2022/03/16 04:43:04;;;;;;;22.45;13.65;;;;;;;10.74;59.79;100009.72;4469914;32;33345;-77
2022/03/16 04:45:31;;;;;;;22.70;13.68;;;;;;;10.72;57.18;100009.06;4471023;32;33826;-77
2022/03/16 04:47:59;;;;;;;22.42;14.00;;;;;;;10.67;56.09;100016.22;4469741;32;34302;-77
2022/03/16 04:50:32;;;;;;;25.45;14.15;;;;;;;10.64;55.28;100009.22;4469767;32;34488;-76
2022/03/16 04:53:00;;;;;;;22.92;13.13;;;;;;;10.70;54.86;100002.94;4456876;32;34018;-77
2022/03/16 04:55:28;;;;;;;20.88;13.40;;;;;;;10.72;53.37;100008.22;4469794;32;33817;-77
2022/03/16 04:57:59;;;;;;;23.33;12.98;;;;;;;10.55;52.87;100018.66;4469666;32;34243;-77
2022/03/16 05:00:27;;;;;;;23.33;13.48;;;;;;;10.70;52.58;100037.75;4456952;32;33405;-77
2022/03/16 05:02:54;;;;;;;23.17;14.02;;;;;;;10.54;52.86;100030.69;4469979;32;33556;-78
2022/03/16 05:05:22;;;;;;;22.67;13.90;;;;;;;10.67;52.77;100041.75;4456596;32;33531;-77
2022/03/16 05:07:49;;;;;;;23.75;15.27;;;;;;;10.65;52.30;100034.78;4469879;32;35290;-77
2022/03/16 05:10:17;;;;;;;24.60;14.77;;;;;;;10.71;52.11;100050.44;4469817;32;33720;-77
2022/03/16 05:12:45;;;;;;;22.77;13.57;;;;;;;10.73;52.22;100051.94;4456946;32;33053;-77
2022/03/16 05:15:14;;;;;;;27.65;14.27;;;;;;;10.72;52.14;100057.63;4469807;32;33773;-77
2022/03/16 05:17:45;;;;;;;27.30;13.55;;;;;;;10.61;52.44;100056.28;4456940;32;33066;-77
2022/03/16 05:20:14;;;;;;;22.55;14.13;;;;;;;10.64;52.48;100061.37;4469425;32;34713;-77
2022/03/16 05:22:42;;;;;;;25.60;13.27;;;;;;;10.69;52.30;100058.88;4456813;32;33719;-77
2022/03/16 05:25:12;;;;;;;22.65;14.27;;;;;;;10.59;52.67;100057.53;4469608;32;33608;-77
2022/03/16 05:27:39;;;;;;;22.90;14.23;;;;;;;10.42;53.46;100067.94;4469771;32;34449;-77
2022/03/16 05:30:10;;;;;;;24.17;14.10;;;;;;;10.43;53.43;100059.53;4456786;32;32336;-77
2022/03/16 05:32:41;;;;;;;23.87;14.85;;;;;;;10.60;53.07;100060.06;4469529;32;32008;-77
2022/03/16 05:35:11;;;;;;;19.75;12.68;;;;;;;10.37;53.76;100054.00;4457124;32;34021;-76
2022/03/16 05:37:40;;;;;;;22.60;12.77;;;;;;;10.32;54.33;100056.50;4469808;32;34354;-77
2022/03/16 05:40:10;;;;;;;25.80;13.55;;;;;;;10.73;56.27;100051.09;4456534;32;34928;-75
2022/03/16 05:42:38;;;;;;;19.98;12.70;;;;;;;10.69;54.93;100045.16;4469257;32;33035;-76
2022/03/16 05:45:06;;;;;;;20.48;12.32;;;;;;;10.59;54.79;100044.66;4456795;32;33659;-76
2022/03/16 05:47:36;;;;;;;19.40;12.80;;;;;;;10.77;54.35;100039.50;4469237;32;35292;-75
2022/03/16 05:50:05;;;;;;;18.67;12.48;;;;;;;10.77;54.64;100047.75;4482242;32;33781;-76
2022/03/16 05:52:36;;;;;;;22.45;13.05;;;;;;;10.71;54.88;100054.03;4469472;32;33619;-75
2022/03/16 05:55:09;;;;;;;26.42;15.82;;;;;;;10.62;55.93;100063.47;4456395;32;33134;-75
2022/03/16 05:57:39;;;;;;;19.65;12.73;;;;;;;10.78;55.42;100062.31;4456457;32;33919;-77
2022/03/16 06:00:14;;;;;;;23.10;13.43;;;;;;;10.95;55.03;100066.44;4468964;32;32206;-75
2022/03/16 06:02:47;;;;;;;19.08;12.57;;;;;;;10.94;55.02;100083.97;4481917;32;33257;-76
2022/03/16 06:05:27;;;;;;;22.02;12.75;;;;;;;10.95;54.93;100085.66;4457287;32;33289;-76
2022/03/16 06:07:54;;;;;;;24.33;13.77;;;;;;;11.08;54.79;100093.09;4469298;32;34433;-76
2022/03/16 06:10:22;;;;;;;29.25;16.75;;;;;;;11.22;55.21;100094.87;4469106;32;33971;-77
2022/03/16 06:12:56;;;;;;;29.70;18.50;;;;;;;10.99;54.87;100077.87;4467119;32;33571;-76
2022/03/16 06:15:26;;;;;;;28.58;17.45;;;;;;;10.79;55.77;100092.31;4469093;32;32288;-76
2022/03/16 06:17:58;;;;;;;22.83;14.68;;;;;;;11.06;55.28;100098.81;4456468;32;35143;-76
2022/03/16 06:20:32;;;;;;;21.83;13.25;;;;;;;11.03;54.91;100087.41;4469115;32;32507;-77
2022/03/16 06:23:00;;;;;;;21.77;12.57;;;;;;;11.19;54.39;100081.56;4456917;32;33462;-76
2022/03/16 06:25:31;;;;;;;21.45;13.02;;;;;;;11.04;54.71;100092.69;4456320;32;33666;-76
2022/03/16 06:27:59;;;;;;;18.42;12.90;;;;;;;11.03;54.86;100095.63;4469291;32;34280;-76
2022/03/16 06:30:26;;;;;;;18.60;12.18;;;;;;;11.13;54.85;100090.59;4456125;32;33779;-76
2022/03/16 06:32:54;;;;;;;26.87;13.82;;;;;;;11.20;54.79;100096.97;4456052;32;34316;-76
2022/03/16 06:35:25;;;;;;;19.27;12.82;;;;;;;11.24;54.69;100084.53;4456349;32;34537;-76
2022/03/16 06:37:53;;;;;;;19.87;12.90;;;;;;;10.85;56.66;100093.41;4456568;32;35272;-76
2022/03/16 06:40:23;;;;;;;18.45;11.57;;;;;;;10.95;56.51;100091.16;4456371;32;34026;-76
2022/03/16 06:42:56;;;;;;;18.17;11.20;;;;;;;10.87;57.28;100089.41;4455703;32;33250;-76
2022/03/16 06:45:27;;;;;;;17.87;11.43;;;;;;;11.15;56.75;100085.75;4455684;32;33691;-76
2022/03/16 06:47:56;;;;;;;21.23;12.37;;;;;;;11.39;56.05;100093.50;4456117;32;32926;-76
2022/03/16 06:50:24;;;;;;;21.12;12.00;;;;;;;11.27;56.91;100105.25;4468902;32;34100;-76
2022/03/16 06:52:56;;;;;;;18.17;11.25;;;;;;;11.16;57.68;100099.28;4456247;32;34112;-76
2022/03/16 06:55:24;;;;;;;18.37;11.35;;;;;;;11.16;57.50;100110.28;4456107;32;33317;-75
2022/03/16 06:57:51;;;;;;;17.73;10.48;;;;;;;11.10;57.96;100108.34;4456110;32;34503;-76
2022/03/16 07:00:19;;;;;;;18.30;10.93;;;;;;;11.06;58.63;100108.94;4456067;32;32323;-76
2022/03/16 07:02:50;;;;;;;17.73;11.52;;;;;;;10.99;58.82;100105.34;4456181;32;33318;-76
2022/03/16 07:05:23;;;;;;;17.15;10.70;;;;;;;11.30;57.69;100104.84;4468760;32;33323;-76
2022/03/16 07:07:51;;;;;;;18.37;11.77;;;;;;;11.05;59.18;100116.31;4456116;32;34308;-76
2022/03/16 07:10:20;;;;;;;16.60;11.12;;;;;;;11.00;59.49;100116.13;4468888;32;34537;-76
2022/03/16 07:12:47;;;;;;;17.70;10.32;;;;;;;11.21;58.92;100117.91;4455933;32;32177;-76
2022/03/16 07:15:17;;;;;;;15.80;10.40;;;;;;;11.05;59.35;100113.59;4455716;32;33919;-76
2022/03/16 07:17:45;;;;;;;18.50;10.32;;;;;;;10.93;60.19;100117.97;4455969;32;34309;-77
2022/03/16 07:20:13;;;;;;;19.12;11.12;;;;;;;11.00;60.24;100115.28;4443302;32;32306;-76
2022/03/16 07:22:44;;;;;;;20.27;10.88;;;;;;;11.02;60.32;100103.03;4456541;32;31993;-76
2022/03/16 07:25:29;;;;;;;22.27;11.80;;;;;;;11.06;60.50;100115.28;4469086;32;34056;-76
2022/03/16 07:27:56;;;;;;;19.80;10.38;;;;;;;10.73;62.11;100116.97;4469846;32;33693;-76
2022/03/16 07:30:24;;;;;;;23.10;12.20;;;;;;;10.73;62.21;100117.81;4470192;32;34718;-76
2022/03/16 07:32:52;;;;;;;19.27;11.48;;;;;;;10.69;62.78;100115.66;4465439;31;33247;-76
2022/03/16 07:35:26;;;;;;;21.92;11.52;;;;;;;10.86;62.14;100106.09;4454519;32;33133;-76
2022/03/16 07:37:55;;;;;;;17.60;10.40;;;;;;;10.89;62.27;100117.53;4443712;32;32909;-76
2022/03/16 07:40:24;;;;;;;18.40;11.27;;;;;;;11.15;61.19;100110.47;4442980;32;32581;-76
2022/03/16 07:42:51;;;;;;;20.45;10.85;;;;;;;10.44;64.30;100118.00;4455683;32;34204;-76
2022/03/16 07:45:20;;;;;;;19.87;11.32;;;;;;;11.07;61.99;100124.38;4467466;32;34855;-76
2022/03/16 07:47:50;;;;;;;19.35;10.98;;;;;;;10.98;62.53;100114.63;4455530;32;32899;-76
2022/03/16 07:50:17;;;;;;;18.65;11.40;;;;;;;11.24;61.44;100131.25;4468193;32;33913;-76
2022/03/16 07:52:45;;;;;;;18.92;11.73;;;;;;;11.37;61.16;100128.56;4468431;32;33150;-76
2022/03/16 07:55:15;;;;;;;27.13;15.52;;;;;;;11.19;61.88;100125.50;4455038;32;33318;-76
2022/03/16 07:57:46;;;;;;;18.35;10.88;;;;;;;11.22;62.17;100131.44;4455718;32;32976;-76
2022/03/16 08:00:18;;;;;;;15.77;10.23;;;;;;;11.58;60.51;100133.13;4455377;32;32568;-76
2022/03/16 08:02:53;;;;;;;17.95;11.18;;;;;;;11.03;62.55;100123.09;4456051;32;34280;-76
2022/03/16 08:05:24;;;;;;;18.92;10.88;;;;;;;11.12;62.12;100132.84;4456533;32;33895;-76
2022/03/16 08:07:51;;;;;;;20.40;11.30;;;;;;;11.27;62.28;100136.34;4457351;32;34402;-76
2022/03/16 08:10:23;;;;;;;17.30;10.38;;;;;;;11.37;62.04;100145.06;4457271;32;33794;-76
2022/03/16 08:12:50;;;;;;;18.95;10.85;;;;;;;11.13;62.97;100138.16;4457039;32;33135;-76
2022/03/16 08:15:18;;;;;;;18.30;11.40;;;;;;;11.37;62.17;100138.72;4431890;32;32082;-76
2022/03/16 08:17:50;;;;;;;18.58;11.70;;;;;;;11.58;61.18;100143.25;4457707;32;35150;-76
2022/03/16 08:20:18;;;;;;;18.27;11.73;;;;;;;11.55;60.96;100139.88;4457324;32;33396;-76
2022/03/16 08:22:46;;;;;;;28.02;14.77;;;;;;;11.69;60.55;100148.19;4457286;32;32835;-76
2022/03/16 08:25:15;;;;;;;19.37;11.95;;;;;;;11.29;62.09;100141.63;4457404;32;32375;-76
2022/03/16 08:27:48;;;;;;;16.37;10.93;;;;;;;11.29;61.78;100141.63;4457160;32;32838;-76
2022/03/16 08:30:16;;;;;;;17.55;10.40;;;;;;;11.05;62.67;100143.78;4457582;32;33987;-76
2022/03/16 08:32:47;;;;;;;25.77;13.52;;;;;;;11.17;62.60;100153.19;4457055;32;33158;-76
2022/03/16 08:35:14;;;;;;;25.35;13.40;;;;;;;11.22;62.59;100156.16;4477011;31;33631;-76
2022/03/16 08:37:42;;;;;;;23.08;12.90;;;;;;;11.58;61.07;100155.09;4488481;31;34339;-76
2022/03/16 08:40:11;;;;;;;16.83;11.60;;;;;;;11.15;61.80;100163.53;4488467;31;33712;-76
2022/03/16 08:42:48;;;;;;;32.28;20.23;;;;;;;10.75;62.75;100165.13;4476597;31;33549;-76
2022/03/16 08:45:16;;;;;;;20.83;13.27;;;;;;;10.52;64.54;100161.75;4475737;31;33797;-76
2022/03/16 08:47:44;;;;;;;21.85;13.00;;;;;;;10.22;65.83;100178.38;4475646;31;34396;-76
2022/03/16 08:50:12;;;;;;;20.20;13.00;;;;;;;10.52;65.21;100179.06;4488380;31;33715;-76
2022/03/16 08:52:40;;;;;;;20.08;13.27;;;;;;;10.57;65.50;100175.75;4467001;31;33041;-76
2022/03/16 08:55:08;;;;;;;20.75;12.88;;;;;;;10.98;63.77;100177.78;4467131;31;32532;-76
2022/03/16 08:57:37;;;;;;;20.65;12.95;;;;;;;10.26;66.75;100195.28;4502481;31;34490;-76
2022/03/16 09:00:05;;;;;;;23.75;13.62;;;;;;;10.45;66.12;100194.62;4488024;31;33965;-75
2022/03/16 09:02:33;;;;;;;22.17;14.60;;;;;;;10.45;66.43;100200.13;4475218;31;33312;-76
2022/03/16 09:05:02;;;;;;;24.08;15.88;;;;;;;10.60;66.10;100189.06;4471833;32;34452;-76
2022/03/16 09:07:30;;;;;;;24.00;15.18;;;;;;;10.86;65.50;100197.56;4472678;32;35199;-76
2022/03/16 09:09:58;;;;;;;21.23;13.57;;;;;;;10.85;65.22;100190.34;4485374;32;34674;-76
2022/03/16 09:12:28;;;;;;;20.70;13.52;;;;;;;11.19;63.43;100196.94;4472272;32;34321;-76
2022/03/16 09:14:56;;;;;;;21.15;13.25;;;;;;;11.22;63.72;100191.88;4459581;32;32221;-75
2022/03/16 09:17:24;;;;;;;20.30;13.45;;;;;;;10.82;64.63;100206.37;4472448;32;35120;-75
2022/03/16 09:19:52;;;;;;;32.55;18.98;;;;;;;11.08;63.48;100198.34;4459617;32;32289;-76
2022/03/16 09:22:22;;;;;;;23.23;13.60;;;;;;;11.18;63.16;100214.47;4472618;32;32698;-76
2022/03/16 09:24:50;;;;;;;22.15;14.55;;;;;;;10.79;63.31;100228.75;4484929;32;34676;-75
2022/03/16 09:27:17;;;;;;;21.23;13.02;;;;;;;10.52;64.21;100222.12;4485316;32;34260;-76
2022/03/16 09:29:46;;;;;;;21.60;14.27;;;;;;;10.77;63.06;100236.31;4471899;32;32782;-75
2022/03/16 09:32:16;;;;;;;19.42;11.90;;;;;;;10.89;62.57;100230.09;4471785;32;33503;-76
2022/03/16 09:34:46;;;;;;;18.83;11.98;;;;;;;11.15;61.53;100237.69;4472478;32;33877;-76
2022/03/16 09:37:14;;;;;;;19.48;12.10;;;;;;;10.83;61.81;100241.88;4472387;32;34386;-75
2022/03/16 09:39:42;;;;;;;21.92;11.05;;;;;;;10.29;63.54;100243.44;4472054;32;34603;-75
2022/03/16 09:42:10;;;;;;;26.08;13.68;;;;;;;10.06;64.96;100252.62;4459242;32;32011;-75
2022/03/16 09:44:38;;;;;;;25.65;15.68;;;;;;;10.14;65.20;100262.62;4472230;32;32402;-75
2022/03/16 09:47:08;;;;;;;20.50;12.50;;;;;;;10.35;64.96;100264.63;4472298;32;34083;-75
2022/03/16 09:49:38;;;;;;;18.83;11.25;;;;;;;9.34;67.83;100273.53;4485231;32;34169;-75
2022/03/16 09:52:09;;;;;;;18.75;11.05;;;;;;;9.86;66.51;100274.28;4472278;32;33261;-75
2022/03/16 09:54:36;;;;;;;18.58;11.68;;;;;;;9.73;67.28;100276.88;4472601;32;34457;-75
2022/03/16 09:57:05;;;;;;;20.00;12.18;;;;;;;9.76;66.52;100270.13;4485253;32;34878;-76
2022/03/16 09:59:32;;;;;;;19.87;12.85;;;;;;;9.22;69.24;100278.63;4484920;32;33901;-75
2022/03/16 10:02:09;;;;;;;20.35;13.93;;;;;;;9.42;68.84;100278.94;4474987;31;31805;-75
2022/03/16 10:04:39;;;;;;;27.08;16.55;;;;;;;9.75;67.66;100282.16;4475228;31;33828;-75
2022/03/16 10:07:10;;;;;;;23.40;13.85;;;;;;;10.06;67.20;100282.78;4462171;31;32973;-76
2022/03/16 10:15:14;;;;;;;20.10;13.27;;;;;;;10.03;66.32;100291.41;4489538;31;33894;-75
2022/03/16 10:17:43;;;;;;;21.98;13.55;;;;;;;10.19;65.79;100291.22;4487190;31;34357;-75
2022/03/16 10:20:17;;;;;;;17.58;11.77;;;;;;;10.39;65.27;100296.09;4461650;31;33985;-76
2022/03/16 10:23:14;;;;;;;19.67;12.40;;;;;;;9.82;66.74;100291.31;4487615;31;31700;-75
2022/03/16 10:25:54;;;;;;;18.45;12.63;;;;;;;9.74;67.15;100296.91;4475016;31;33172;-75
2022/03/16 10:28:23;;;;;;;20.27;12.60;;;;;;;9.67;66.95;100298.72;4474683;31;33067;-75
2022/03/16 10:31:05;;;;;;;18.42;12.27;;;;;;;9.91;66.74;100301.13;4487519;31;33791;-75
2022/03/16 10:33:49;;;;;;;20.70;12.27;;;;;;;9.91;66.44;100298.41;4474822;31;32859;-75
2022/03/16 10:36:26;;;;;;;17.98;10.95;;;;;;;9.68;66.71;100309.47;4487638;31;34745;-75
2022/03/16 10:39:13;;;;;;;17.20;11.20;;;;;;;9.94;65.95;100292.53;4476608;31;32958;-75
2022/03/16 10:47:15;;;;;;;19.37;12.18;;;;;;;9.38;69.22;100299.53;4502096;31;34650;-75
2022/03/16 10:49:43;;;;;;;17.30;11.43;;;;;;;9.81;67.63;100289.59;4474443;31;34358;-75
2022/03/16 10:52:15;;;;;;;15.70;10.25;;;;;;;9.74;67.28;100303.25;4474760;31;34851;-75
2022/03/16 10:54:45;;;;;;;16.58;11.27;;;;;;;10.27;65.39;100294.91;4487887;31;33176;-75
2022/03/16 10:57:15;;;;;;;15.95;10.20;;;;;;;9.90;65.93;100299.44;4474341;31;32389;-75
2022/03/16 10:59:44;;;;;;;15.73;9.80;;;;;;;10.22;64.84;100295.47;4471525;31;102001;-75
2022/03/16 11:02:13;;;;;;;13.68;8.75;;;;;;;10.47;63.83;100294.06;4474528;31;33996;-76
2022/03/16 11:04:43;;;;;;;15.27;8.93;;;;;;;10.80;62.02;100296.34;4487097;31;32895;-75
2022/03/16 11:07:12;;;;;;;14.82;8.95;;;;;;;10.63;62.94;100303.12;4474263;31;33234;-75
2022/03/16 11:09:43;;;;;;;16.17;9.85;;;;;;;10.51;63.62;100302.75;4460787;31;33315;-75
2022/03/16 11:15:10;;;;;;;14.70;9.00;;;;;;;10.88;62.13;100313.53;4490090;31;33205;-75
2022/03/16 11:17:39;;;;;;;12.63;8.45;;;;;;;10.20;63.28;100320.34;4461332;31;32236;-75
2022/03/16 11:20:10;;;;;;;13.38;8.40;;;;;;;10.50;63.34;100325.75;4474442;31;33621;-75
2022/03/16 11:26:15;;;;;;;15.05;9.02;;;;;;;10.64;62.00;100335.84;4489654;31;33466;-74
2022/03/16 11:29:01;;;;;;;13.82;9.40;;;;;;;10.41;63.11;100330.50;4487016;31;34520;-75
2022/03/16 11:31:34;;;;;;;13.45;9.05;;;;;;;10.30;62.98;100343.91;4480852;32;33928;-75
2022/03/16 11:34:05;;;;;;;17.67;9.35;;;;;;;10.22;62.78;100340.22;4463551;32;33954;-75
2022/03/16 11:36:38;;;;;;;13.13;8.70;;;;;;;10.46;61.89;100333.53;4474068;31;33279;-75